sensor_id;sensor_type;location;lat;lon;timestamp;pressure;altitude;pressure_sealevel;temperature;humidity
5380;BME280;2713;42.680;23.310;2022-09-20T00:00:31;95158.06;;;13.38;61.03
5380;BME280;2713;42.680;23.310;2022-09-20T00:02:58;95156.03;;;13.34;60.80
5380;BME280;2713;42.680;23.310;2022-09-20T00:05:25;95164.78;;;13.19;61.41
5380;BME280;2713;42.680;23.310;2022-09-20T00:07:52;95170.19;;;13.11;61.16
5380;BME280;2713;42.680;23.310;2022-09-20T00:10:19;95166.16;;;13.15;61.04
5380;BME280;2713;42.680;23.310;2022-09-20T00:12:47;95170.59;;;13.15;61.05
5380;BME280;2713;42.680;23.310;2022-09-20T00:15:14;95167.56;;;13.11;60.96
5380;BME280;2713;42.680;23.310;2022-09-20T00:17:43;95139.72;;;12.91;60.99
5380;BME280;2713;42.680;23.310;2022-09-20T00:20:10;95165.75;;;13.12;61.28
5380;BME280;2713;42.680;23.310;2022-09-20T00:22:36;95153.81;;;13.03;61.03
5380;BME280;2713;42.680;23.310;2022-09-20T00:25:04;95157.78;;;12.92;61.27
5380;BME280;2713;42.680;23.310;2022-09-20T00:27:31;95150.94;;;12.91;61.54
5380;BME280;2713;42.680;23.310;2022-09-20T00:29:58;95164.31;;;12.82;61.71
5380;BME280;2713;42.680;23.310;2022-09-20T00:32:25;95171.97;;;12.83;62.29
5380;BME280;2713;42.680;23.310;2022-09-20T00:34:54;95163.03;;;12.99;61.42
5380;BME280;2713;42.680;23.310;2022-09-20T00:37:37;95165.25;;;13.02;61.38
5380;BME280;2713;42.680;23.310;2022-09-20T00:40:07;95165.84;;;13.25;60.68
5380;BME280;2713;42.680;23.310;2022-09-20T00:42:34;95177.31;;;13.31;60.31
5380;BME280;2713;42.680;23.310;2022-09-20T00:45:03;95171.50;;;13.29;60.39
5380;BME280;2713;42.680;23.310;2022-09-20T00:47:37;95168.31;;;13.40;60.12
5380;BME280;2713;42.680;23.310;2022-09-20T00:50:23;95156.75;;;13.14;60.36
5380;BME280;2713;42.680;23.310;2022-09-20T00:52:53;95176.03;;;13.20;60.08
5380;BME280;2713;42.680;23.310;2022-09-20T00:55:23;95176.59;;;13.15;60.68
5380;BME280;2713;42.680;23.310;2022-09-20T00:57:53;95175.59;;;13.10;60.27
5380;BME280;2713;42.680;23.310;2022-09-20T01:00:20;95177.22;;;13.11;60.71
5380;BME280;2713;42.680;23.310;2022-09-20T01:02:49;95175.38;;;12.84;61.21
5380;BME280;2713;42.680;23.310;2022-09-20T01:05:19;95166.94;;;12.82;61.14
5380;BME280;2713;42.680;23.310;2022-09-20T01:07:47;95157.66;;;12.73;60.76
5380;BME280;2713;42.680;23.310;2022-09-20T01:10:15;95167.28;;;12.72;60.33
5380;BME280;2713;42.680;23.310;2022-09-20T01:12:44;95162.09;;;12.79;59.81
5380;BME280;2713;42.680;23.310;2022-09-20T01:15:12;95176.81;;;12.86;59.99
5380;BME280;2713;42.680;23.310;2022-09-20T01:17:44;95171.38;;;12.88;59.82
5380;BME280;2713;42.680;23.310;2022-09-20T01:20:16;95175.59;;;12.89;59.74
5380;BME280;2713;42.680;23.310;2022-09-20T01:23:03;95176.84;;;12.93;59.33
5380;BME280;2713;42.680;23.310;2022-09-20T01:28:32;95161.56;;;12.90;59.48
5380;BME280;2713;42.680;23.310;2022-09-20T01:31:04;95162.94;;;12.86;58.99
5380;BME280;2713;42.680;23.310;2022-09-20T01:33:40;95150.69;;;12.80;59.01
5380;BME280;2713;42.680;23.310;2022-09-20T01:36:13;95160.53;;;12.84;58.74
5380;BME280;2713;42.680;23.310;2022-09-20T01:38:49;95165.38;;;12.87;58.44
5380;BME280;2713;42.680;23.310;2022-09-20T01:41:23;95171.44;;;12.66;59.12
5380;BME280;2713;42.680;23.310;2022-09-20T01:43:59;95166.22;;;12.66;59.26
5380;BME280;2713;42.680;23.310;2022-09-20T01:46:32;95171.84;;;12.63;59.78
5380;BME280;2713;42.680;23.310;2022-09-20T01:49:10;95174.09;;;12.73;59.39
5380;BME280;2713;42.680;23.310;2022-09-20T01:55:05;95184.19;;;12.83;59.15
5380;BME280;2713;42.680;23.310;2022-09-20T02:00:41;95175.56;;;12.54;60.42
5380;BME280;2713;42.680;23.310;2022-09-20T02:06:34;95164.00;;;12.63;60.24
5380;BME280;2713;42.680;23.310;2022-09-20T02:09:16;95159.00;;;12.68;60.18
5380;BME280;2713;42.680;23.310;2022-09-20T02:11:57;95150.97;;;12.63;60.01
5380;BME280;2713;42.680;23.310;2022-09-20T02:14:35;95151.00;;;12.70;60.43
5380;BME280;2713;42.680;23.310;2022-09-20T02:17:17;95145.28;;;12.53;60.34
5380;BME280;2713;42.680;23.310;2022-09-20T02:20:02;95142.66;;;12.53;60.44
5380;BME280;2713;42.680;23.310;2022-09-20T02:22:50;95123.75;;;12.45;59.97
5380;BME280;2713;42.680;23.310;2022-09-20T02:25:41;95141.53;;;12.62;60.05
5380;BME280;2713;42.680;23.310;2022-09-20T02:28:25;95144.13;;;12.62;59.54
5380;BME280;2713;42.680;23.310;2022-09-20T02:31:01;95144.25;;;12.54;59.77
5380;BME280;2713;42.680;23.310;2022-09-20T02:34:07;95154.13;;;12.59;59.44
5380;BME280;2713;42.680;23.310;2022-09-20T02:36:43;95150.63;;;12.45;60.41
5380;BME280;2713;42.680;23.310;2022-09-20T02:39:15;95156.09;;;12.29;60.81
5380;BME280;2713;42.680;23.310;2022-09-20T02:41:55;95152.47;;;12.09;61.47
5380;BME280;2713;42.680;23.310;2022-09-20T02:44:35;95162.09;;;11.87;62.66
5380;BME280;2713;42.680;23.310;2022-09-20T02:47:11;95165.50;;;11.88;62.93
5380;BME280;2713;42.680;23.310;2022-09-20T02:50:00;95165.69;;;11.86;63.33
5380;BME280;2713;42.680;23.310;2022-09-20T02:52:34;95158.34;;;11.75;63.53
5380;BME280;2713;42.680;23.310;2022-09-20T02:55:08;95173.19;;;11.75;64.21
5380;BME280;2713;42.680;23.310;2022-09-20T02:57:45;95167.16;;;11.59;65.36
5380;BME280;2713;42.680;23.310;2022-09-20T03:00:20;95166.78;;;11.62;65.40
5380;BME280;2713;42.680;23.310;2022-09-20T03:02:59;95170.28;;;11.69;65.52
5380;BME280;2713;42.680;23.310;2022-09-20T03:05:37;95176.03;;;11.65;65.46
5380;BME280;2713;42.680;23.310;2022-09-20T03:08:19;95174.34;;;11.57;65.85
5380;BME280;2713;42.680;23.310;2022-09-20T03:10:56;95163.81;;;11.65;65.13
5380;BME280;2713;42.680;23.310;2022-09-20T03:13:42;95166.97;;;11.76;65.00
5380;BME280;2713;42.680;23.310;2022-09-20T03:16:20;95163.28;;;11.70;64.90
5380;BME280;2713;42.680;23.310;2022-09-20T03:18:58;95175.59;;;11.76;64.90
5380;BME280;2713;42.680;23.310;2022-09-20T03:21:39;95183.47;;;11.83;64.43
5380;BME280;2713;42.680;23.310;2022-09-20T03:24:19;95186.81;;;11.77;64.65
5380;BME280;2713;42.680;23.310;2022-09-20T03:26:55;95183.94;;;11.72;65.09
5380;BME280;2713;42.680;23.310;2022-09-20T03:29:33;95179.38;;;11.74;64.75
5380;BME280;2713;42.680;23.310;2022-09-20T03:32:16;95191.81;;;11.78;64.81
5380;BME280;2713;42.680;23.310;2022-09-20T03:34:53;95190.41;;;11.76;64.83
5380;BME280;2713;42.680;23.310;2022-09-20T03:37:54;95195.88;;;11.81;64.14
5380;BME280;2713;42.680;23.310;2022-09-20T03:43:47;95192.47;;;11.80;64.22
5380;BME280;2713;42.680;23.310;2022-09-20T03:46:21;95191.13;;;11.84;64.02
5380;BME280;2713;42.680;23.310;2022-09-20T03:51:51;95191.59;;;11.73;64.31
5380;BME280;2713;42.680;23.310;2022-09-20T03:54:44;95197.69;;;11.80;63.97
5380;BME280;2713;42.680;23.310;2022-09-20T03:57:41;95196.56;;;11.89;63.51
5380;BME280;2713;42.680;23.310;2022-09-20T04:00:32;95194.84;;;11.96;63.26
5380;BME280;2713;42.680;23.310;2022-09-20T04:03:16;95190.78;;;12.08;62.72
5380;BME280;2713;42.680;23.310;2022-09-20T04:05:59;95200.44;;;11.93;62.65
5380;BME280;2713;42.680;23.310;2022-09-20T04:08:46;95209.50;;;11.97;62.41
5380;BME280;2713;42.680;23.310;2022-09-20T04:11:22;95212.13;;;11.83;63.20
5380;BME280;2713;42.680;23.310;2022-09-20T04:13:55;95217.16;;;11.84;63.03
5380;BME280;2713;42.680;23.310;2022-09-20T04:16:34;95219.19;;;11.89;62.77
5380;BME280;2713;42.680;23.310;2022-09-20T04:19:11;95234.75;;;11.82;63.26
5380;BME280;2713;42.680;23.310;2022-09-20T04:21:47;95223.97;;;11.85;63.14
5380;BME280;2713;42.680;23.310;2022-09-20T04:24:22;95227.00;;;11.89;63.23
5380;BME280;2713;42.680;23.310;2022-09-20T04:26:57;95225.50;;;11.94;62.99
5380;BME280;2713;42.680;23.310;2022-09-20T04:29:32;95221.88;;;11.95;62.89
5380;BME280;2713;42.680;23.310;2022-09-20T04:32:08;95229.53;;;11.97;63.00
5380;BME280;2713;42.680;23.310;2022-09-20T04:34:44;95220.94;;;11.67;63.94
5380;BME280;2713;42.680;23.310;2022-09-20T04:37:31;95224.91;;;11.78;63.88
5380;BME280;2713;42.680;23.310;2022-09-20T04:40:19;95216.66;;;11.74;63.84
5380;BME280;2713;42.680;23.310;2022-09-20T04:52:31;95244.72;;;12.29;62.65
5380;BME280;2713;42.680;23.310;2022-09-20T04:55:38;95230.06;;;12.28;62.31
5380;BME280;2713;42.680;23.310;2022-09-20T05:05:01;95230.88;;;12.29;62.23
5380;BME280;2713;42.680;23.310;2022-09-20T05:11:16;95235.78;;;12.02;62.70
5380;BME280;2713;42.680;23.310;2022-09-20T05:14:00;95241.88;;;12.09;62.85
5380;BME280;2713;42.680;23.310;2022-09-20T05:16:43;95236.34;;;11.98;63.36
5380;BME280;2713;42.680;23.310;2022-09-20T05:19:24;95250.72;;;12.08;63.19
5380;BME280;2713;42.680;23.310;2022-09-20T05:25:25;95246.69;;;12.27;62.38
5380;BME280;2713;42.680;23.310;2022-09-20T05:27:58;95253.91;;;12.25;62.53
5380;BME280;2713;42.680;23.310;2022-09-20T05:30:33;95239.25;;;12.24;62.88
5380;BME280;2713;42.680;23.310;2022-09-20T05:33:14;95254.69;;;12.26;62.74
5380;BME280;2713;42.680;23.310;2022-09-20T05:35:51;95247.00;;;12.17;62.69
5380;BME280;2713;42.680;23.310;2022-09-20T05:38:29;95258.75;;;12.13;63.11
5380;BME280;2713;42.680;23.310;2022-09-20T05:41:11;95261.94;;;12.30;62.63
5380;BME280;2713;42.680;23.310;2022-09-20T05:43:49;95255.47;;;12.26;63.02
5380;BME280;2713;42.680;23.310;2022-09-20T05:46:26;95249.56;;;11.96;63.97
5380;BME280;2713;42.680;23.310;2022-09-20T05:49:06;95257.72;;;12.08;64.17
5380;BME280;2713;42.680;23.310;2022-09-20T05:51:50;95237.63;;;12.23;63.52
5380;BME280;2713;42.680;23.310;2022-09-20T05:54:38;95245.75;;;12.13;64.06
5380;BME280;2713;42.680;23.310;2022-09-20T05:57:23;95252.22;;;12.03;64.46
5380;BME280;2713;42.680;23.310;2022-09-20T06:00:00;95255.47;;;12.26;63.80
5380;BME280;2713;42.680;23.310;2022-09-20T06:02:43;95252.88;;;12.26;62.71
5380;BME280;2713;42.680;23.310;2022-09-20T06:05:15;95254.19;;;12.37;62.83
5380;BME280;2713;42.680;23.310;2022-09-20T06:08:03;95246.56;;;12.78;62.13
5380;BME280;2713;42.680;23.310;2022-09-20T06:10:59;95249.00;;;13.62;59.39
5380;BME280;2713;42.680;23.310;2022-09-20T06:13:40;95254.56;;;14.41;56.70
5380;BME280;2713;42.680;23.310;2022-09-20T06:16:17;95256.44;;;15.00;54.83
5380;BME280;2713;42.680;23.310;2022-09-20T06:18:50;95256.22;;;15.14;54.53
5380;BME280;2713;42.680;23.310;2022-09-20T06:21:32;95250.97;;;15.28;53.83
5380;BME280;2713;42.680;23.310;2022-09-20T06:24:02;95256.94;;;15.81;52.57
5380;BME280;2713;42.680;23.310;2022-09-20T06:26:34;95257.66;;;16.07;51.61
5380;BME280;2713;42.680;23.310;2022-09-20T06:29:06;95263.78;;;15.88;51.93
5380;BME280;2713;42.680;23.310;2022-09-20T06:31:37;95253.94;;;16.28;51.86
5380;BME280;2713;42.680;23.310;2022-09-20T06:34:06;95251.88;;;16.37;51.21
5380;BME280;2713;42.680;23.310;2022-09-20T06:36:37;95250.59;;;16.08;51.64
5380;BME280;2713;42.680;23.310;2022-09-20T06:39:27;95253.03;;;16.09;52.38
5380;BME280;2713;42.680;23.310;2022-09-20T06:42:16;95232.19;;;16.52;50.49
5380;BME280;2713;42.680;23.310;2022-09-20T06:44:45;95251.47;;;16.40;50.36
5380;BME280;2713;42.680;23.310;2022-09-20T06:47:13;95253.22;;;16.84;49.66
5380;BME280;2713;42.680;23.310;2022-09-20T06:49:41;95248.84;;;16.78;49.73
5380;BME280;2713;42.680;23.310;2022-09-20T06:52:11;95251.84;;;16.43;50.12
5380;BME280;2713;42.680;23.310;2022-09-20T06:54:41;95244.06;;;16.93;58.87
5380;BME280;2713;42.680;23.310;2022-09-20T06:57:11;95254.13;;;16.96;48.60
5380;BME280;2713;42.680;23.310;2022-09-20T06:59:40;95249.00;;;17.07;47.62
5380;BME280;2713;42.680;23.310;2022-09-20T07:02:08;95263.50;;;16.85;48.15
5380;BME280;2713;42.680;23.310;2022-09-20T07:04:36;95262.09;;;16.83;48.02
5380;BME280;2713;42.680;23.310;2022-09-20T07:07:05;95260.38;;;16.32;49.42
5380;BME280;2713;42.680;23.310;2022-09-20T07:09:33;95263.41;;;16.73;48.08
5380;BME280;2713;42.680;23.310;2022-09-20T07:12:00;95262.38;;;16.75;48.12
5380;BME280;2713;42.680;23.310;2022-09-20T07:14:27;95258.44;;;16.90;48.14
5380;BME280;2713;42.680;23.310;2022-09-20T07:16:54;95263.31;;;17.11;47.29
5380;BME280;2713;42.680;23.310;2022-09-20T07:19:23;95258.50;;;17.08;47.51
5380;BME280;2713;42.680;23.310;2022-09-20T07:21:49;95259.66;;;17.12;47.22
5380;BME280;2713;42.680;23.310;2022-09-20T07:24:16;95257.34;;;17.47;46.81
5380;BME280;2713;42.680;23.310;2022-09-20T07:26:54;95263.22;;;18.22;45.68
5380;BME280;2713;42.680;23.310;2022-09-20T07:29:21;95254.47;;;17.92;45.77
5380;BME280;2713;42.680;23.310;2022-09-20T07:31:48;95248.94;;;18.00;45.84
5380;BME280;2713;42.680;23.310;2022-09-20T07:34:16;95259.03;;;18.51;44.82
5380;BME280;2713;42.680;23.310;2022-09-20T07:36:46;95255.09;;;18.42;44.00
5380;BME280;2713;42.680;23.310;2022-09-20T07:39:13;95254.59;;;18.33;44.44
5380;BME280;2713;42.680;23.310;2022-09-20T07:41:40;95254.84;;;18.61;44.38
5380;BME280;2713;42.680;23.310;2022-09-20T07:44:15;95247.56;;;18.45;44.91
5380;BME280;2713;42.680;23.310;2022-09-20T07:46:50;95245.56;;;18.59;44.02
5380;BME280;2713;42.680;23.310;2022-09-20T07:49:17;95244.88;;;18.63;42.96
5380;BME280;2713;42.680;23.310;2022-09-20T07:51:46;95247.34;;;18.77;42.79
5380;BME280;2713;42.680;23.310;2022-09-20T07:54:13;95244.41;;;19.08;42.26
5380;BME280;2713;42.680;23.310;2022-09-20T07:56:40;95237.03;;;18.45;43.58
5380;BME280;2713;42.680;23.310;2022-09-20T07:59:07;95243.50;;;19.02;43.51
5380;BME280;2713;42.680;23.310;2022-09-20T08:01:36;95234.09;;;19.99;51.59
5380;BME280;2713;42.680;23.310;2022-09-20T08:04:03;95242.75;;;19.71;40.61
5380;BME280;2713;42.680;23.310;2022-09-20T08:06:31;95240.34;;;19.47;40.27
5380;BME280;2713;42.680;23.310;2022-09-20T08:08:59;95234.69;;;18.97;41.10
5380;BME280;2713;42.680;23.310;2022-09-20T08:11:26;95232.56;;;19.52;40.00
5380;BME280;2713;42.680;23.310;2022-09-20T08:13:56;95237.69;;;19.23;40.62
5380;BME280;2713;42.680;23.310;2022-09-20T08:16:25;95225.53;;;19.11;40.80
5380;BME280;2713;42.680;23.310;2022-09-20T08:18:54;95236.97;;;19.28;40.45
5380;BME280;2713;42.680;23.310;2022-09-20T08:21:23;95239.94;;;18.97;39.78
5380;BME280;2713;42.680;23.310;2022-09-20T08:23:50;95242.41;;;18.02;41.10
5380;BME280;2713;42.680;23.310;2022-09-20T08:26:20;95239.81;;;17.66;41.44
5380;BME280;2713;42.680;23.310;2022-09-20T08:28:51;95247.16;;;18.12;39.94
5380;BME280;2713;42.680;23.310;2022-09-20T08:31:19;95235.81;;;18.30;40.48
5380;BME280;2713;42.680;23.310;2022-09-20T08:33:48;95233.00;;;19.14;39.29
5380;BME280;2713;42.680;23.310;2022-09-20T08:36:17;95222.91;;;19.46;38.19
5380;BME280;2713;42.680;23.310;2022-09-20T08:38:44;95222.91;;;19.34;38.02
5380;BME280;2713;42.680;23.310;2022-09-20T08:41:14;95223.09;;;18.86;38.48
5380;BME280;2713;42.680;23.310;2022-09-20T08:43:48;95220.47;;;18.98;38.28
5380;BME280;2713;42.680;23.310;2022-09-20T08:46:18;95218.91;;;18.67;38.91
5380;BME280;2713;42.680;23.310;2022-09-20T08:48:46;95218.53;;;18.52;39.64
5380;BME280;2713;42.680;23.310;2022-09-20T08:51:14;95211.41;;;18.22;39.95
5380;BME280;2713;42.680;23.310;2022-09-20T08:53:46;95213.34;;;17.61;41.35
5380;BME280;2713;42.680;23.310;2022-09-20T08:56:14;95211.16;;;17.58;41.81
5380;BME280;2713;42.680;23.310;2022-09-20T08:58:42;95211.81;;;18.08;41.51
5380;BME280;2713;42.680;23.310;2022-09-20T09:01:17;95199.94;;;18.88;40.25
5380;BME280;2713;42.680;23.310;2022-09-20T09:03:45;95206.81;;;19.01;38.59
5380;BME280;2713;42.680;23.310;2022-09-20T09:06:14;95200.50;;;18.79;39.36
5380;BME280;2713;42.680;23.310;2022-09-20T09:08:43;95199.69;;;18.07;40.97
5380;BME280;2713;42.680;23.310;2022-09-20T09:11:13;95197.84;;;17.53;42.61
5380;BME280;2713;42.680;23.310;2022-09-20T09:13:47;95196.19;;;17.58;42.97
5380;BME280;2713;42.680;23.310;2022-09-20T09:16:20;95187.72;;;17.74;42.06
5380;BME280;2713;42.680;23.310;2022-09-20T09:18:48;95189.56;;;17.56;42.79
5380;BME280;2713;42.680;23.310;2022-09-20T09:21:18;95186.50;;;17.34;42.96
5380;BME280;2713;42.680;23.310;2022-09-20T09:23:50;95195.72;;;17.00;42.81
5380;BME280;2713;42.680;23.310;2022-09-20T09:26:20;95191.19;;;16.58;43.62
5380;BME280;2713;42.680;23.310;2022-09-20T09:29:10;95185.50;;;16.67;43.53
5380;BME280;2713;42.680;23.310;2022-09-20T09:31:42;95185.06;;;16.70;43.39
5380;BME280;2713;42.680;23.310;2022-09-20T09:34:25;95174.22;;;17.10;43.15
5380;BME280;2713;42.680;23.310;2022-09-20T09:36:54;95172.34;;;17.60;42.52
5380;BME280;2713;42.680;23.310;2022-09-20T09:39:24;95164.09;;;17.56;42.52
5380;BME280;2713;42.680;23.310;2022-09-20T09:41:51;95159.34;;;17.40;42.62
5380;BME280;2713;42.680;23.310;2022-09-20T09:44:21;95164.00;;;17.20;43.26
5380;BME280;2713;42.680;23.310;2022-09-20T09:46:50;95154.09;;;17.40;42.89
5380;BME280;2713;42.680;23.310;2022-09-20T09:49:20;95158.09;;;18.27;40.96
5380;BME280;2713;42.680;23.310;2022-09-20T09:52:04;95154.25;;;18.83;39.00
5380;BME280;2713;42.680;23.310;2022-09-20T09:54:34;95169.56;;;18.74;39.33
5380;BME280;2713;42.680;23.310;2022-09-20T09:57:27;95166.00;;;17.97;40.71
5380;BME280;2713;42.680;23.310;2022-09-20T10:00:06;95161.25;;;17.51;41.21
5380;BME280;2713;42.680;23.310;2022-09-20T10:05:59;95156.69;;;18.13;39.72
5380;BME280;2713;42.680;23.310;2022-09-20T10:08:38;95141.41;;;18.63;39.13
5380;BME280;2713;42.680;23.310;2022-09-20T10:11:17;95156.50;;;18.67;37.91
5380;BME280;2713;42.680;23.310;2022-09-20T10:13:52;95129.50;;;18.72;37.46
5380;BME280;2713;42.680;23.310;2022-09-20T10:16:28;95146.13;;;18.31;38.87
5380;BME280;2713;42.680;23.310;2022-09-20T10:19:01;95152.63;;;17.99;40.47
5380;BME280;2713;42.680;23.310;2022-09-20T10:21:41;95153.25;;;17.64;41.56
5380;BME280;2713;42.680;23.310;2022-09-20T10:24:28;95157.06;;;17.68;41.09
5380;BME280;2713;42.680;23.310;2022-09-20T10:27:11;95155.94;;;17.94;39.79
5380;BME280;2713;42.680;23.310;2022-09-20T10:29:49;95146.00;;;17.78;39.22
5380;BME280;2713;42.680;23.310;2022-09-20T10:32:35;95145.13;;;18.14;38.90
5380;BME280;2713;42.680;23.310;2022-09-20T10:35:14;95143.63;;;18.48;37.63
5380;BME280;2713;42.680;23.310;2022-09-20T10:38:12;95139.91;;;18.55;37.66
5380;BME280;2713;42.680;23.310;2022-09-20T10:40:49;95140.50;;;18.39;38.12
5380;BME280;2713;42.680;23.310;2022-09-20T10:43:49;95141.41;;;18.21;38.50
5380;BME280;2713;42.680;23.310;2022-09-20T10:46:28;95137.47;;;18.12;38.13
5380;BME280;2713;42.680;23.310;2022-09-20T10:49:17;95142.88;;;18.59;37.92
5380;BME280;2713;42.680;23.310;2022-09-20T10:51:58;95138.31;;;18.66;45.15
5380;BME280;2713;42.680;23.310;2022-09-20T10:54:40;95137.81;;;19.73;42.44
5380;BME280;2713;42.680;23.310;2022-09-20T10:57:49;95144.97;;;19.61;40.57
5380;BME280;2713;42.680;23.310;2022-09-20T11:00:21;95152.88;;;19.38;40.30
5380;BME280;2713;42.680;23.310;2022-09-20T11:03:03;95140.25;;;19.40;38.42
5380;BME280;2713;42.680;23.310;2022-09-20T11:05:39;95124.72;;;19.04;44.40
5380;BME280;2713;42.680;23.310;2022-09-20T11:08:11;95130.19;;;18.91;39.29
5380;BME280;2713;42.680;23.310;2022-09-20T11:10:43;95127.13;;;18.82;38.23
5380;BME280;2713;42.680;23.310;2022-09-20T11:13:21;95127.81;;;18.89;38.17
5380;BME280;2713;42.680;23.310;2022-09-20T11:15:55;95124.50;;;18.94;37.39
5380;BME280;2713;42.680;23.310;2022-09-20T11:18:30;95129.38;;;18.55;37.22
5380;BME280;2713;42.680;23.310;2022-09-20T11:21:07;95124.13;;;18.25;37.45
5380;BME280;2713;42.680;23.310;2022-09-20T11:23:44;95119.03;;;18.01;37.67
5380;BME280;2713;42.680;23.310;2022-09-20T11:26:21;95116.69;;;17.63;38.52
5380;BME280;2713;42.680;23.310;2022-09-20T11:28:53;95120.69;;;17.65;39.23
5380;BME280;2713;42.680;23.310;2022-09-20T11:31:25;95117.53;;;17.75;39.50
5380;BME280;2713;42.680;23.310;2022-09-20T11:33:59;95111.47;;;17.74;39.95
5380;BME280;2713;42.680;23.310;2022-09-20T11:36:30;95121.06;;;17.69;39.71
5380;BME280;2713;42.680;23.310;2022-09-20T11:39:07;95117.03;;;17.66;40.42
5380;BME280;2713;42.680;23.310;2022-09-20T11:41:41;95117.00;;;17.85;40.06
5380;BME280;2713;42.680;23.310;2022-09-20T11:44:11;95107.41;;;17.60;40.56
5380;BME280;2713;42.680;23.310;2022-09-20T11:46:45;95111.06;;;17.59;40.19
5380;BME280;2713;42.680;23.310;2022-09-20T11:49:16;95103.31;;;17.64;39.99
5380;BME280;2713;42.680;23.310;2022-09-20T11:57:41;95101.63;;;17.70;40.19
5380;BME280;2713;42.680;23.310;2022-09-20T12:00:09;95093.53;;;17.53;40.55
5380;BME280;2713;42.680;23.310;2022-09-20T12:02:44;95092.94;;;17.51;40.05
5380;BME280;2713;42.680;23.310;2022-09-20T12:05:25;95102.28;;;17.47;39.89
5380;BME280;2713;42.680;23.310;2022-09-20T12:07:53;95096.56;;;17.87;39.58
5380;BME280;2713;42.680;23.310;2022-09-20T12:10:26;95091.47;;;17.73;39.76
5380;BME280;2713;42.680;23.310;2022-09-20T12:12:57;95094.84;;;17.44;40.31
5380;BME280;2713;42.680;23.310;2022-09-20T12:15:27;95066.00;;;17.19;40.42
5380;BME280;2713;42.680;23.310;2022-09-20T12:18:13;95090.19;;;17.46;40.56
5380;BME280;2713;42.680;23.310;2022-09-20T12:21:07;95097.34;;;17.39;40.96
5380;BME280;2713;42.680;23.310;2022-09-20T12:26:44;95090.59;;;17.43;39.02
5380;BME280;2713;42.680;23.310;2022-09-20T12:32:45;95081.31;;;17.77;38.54
5380;BME280;2713;42.680;23.310;2022-09-20T12:38:46;95085.63;;;17.53;39.11
5380;BME280;2713;42.680;23.310;2022-09-20T12:41:16;95085.22;;;17.38;39.32
5380;BME280;2713;42.680;23.310;2022-09-20T12:43:53;95088.19;;;17.42;39.96
5380;BME280;2713;42.680;23.310;2022-09-20T12:46:30;95086.22;;;17.55;40.05
5380;BME280;2713;42.680;23.310;2022-09-20T12:49:34;95083.16;;;17.58;39.65
5380;BME280;2713;42.680;23.310;2022-09-20T12:52:29;95079.44;;;17.66;38.99
5380;BME280;2713;42.680;23.310;2022-09-20T12:55:42;95071.63;;;17.89;38.64
5380;BME280;2713;42.680;23.310;2022-09-20T12:58:22;95076.69;;;17.91;38.01
5380;BME280;2713;42.680;23.310;2022-09-20T13:03:53;95080.19;;;18.14;38.16
5380;BME280;2713;42.680;23.310;2022-09-20T13:06:25;95071.41;;;17.91;36.58
5380;BME280;2713;42.680;23.310;2022-09-20T13:08:56;95073.00;;;17.92;37.47
5380;BME280;2713;42.680;23.310;2022-09-20T13:11:32;95070.00;;;17.77;37.50
5380;BME280;2713;42.680;23.310;2022-09-20T13:14:02;95079.03;;;17.81;37.37
5380;BME280;2713;42.680;23.310;2022-09-20T13:16:44;95078.19;;;17.68;37.05
5380;BME280;2713;42.680;23.310;2022-09-20T13:19:17;95074.53;;;17.51;37.15
5380;BME280;2713;42.680;23.310;2022-09-20T13:21:51;95082.84;;;17.48;37.48
5380;BME280;2713;42.680;23.310;2022-09-20T13:24:19;95080.97;;;17.73;37.15
5380;BME280;2713;42.680;23.310;2022-09-20T13:26:47;95078.47;;;17.60;36.96
5380;BME280;2713;42.680;23.310;2022-09-20T13:29:22;95064.47;;;17.66;36.71
5380;BME280;2713;42.680;23.310;2022-09-20T13:31:52;95070.19;;;17.63;36.81
5380;BME280;2713;42.680;23.310;2022-09-20T13:34:23;95066.19;;;17.72;36.54
5380;BME280;2713;42.680;23.310;2022-09-20T13:36:53;95068.59;;;17.74;36.38
5380;BME280;2713;42.680;23.310;2022-09-20T13:39:23;95041.81;;;17.47;36.07
5380;BME280;2713;42.680;23.310;2022-09-20T13:41:51;95073.31;;;17.36;36.37
5380;BME280;2713;42.680;23.310;2022-09-20T13:44:19;95035.28;;;17.38;36.51
5380;BME280;2713;42.680;23.310;2022-09-20T13:46:46;95068.28;;;17.82;36.58
5380;BME280;2713;42.680;23.310;2022-09-20T13:49:15;95064.31;;;17.91;35.66
5380;BME280;2713;42.680;23.310;2022-09-20T13:51:47;95078.97;;;17.99;35.83
5380;BME280;2713;42.680;23.310;2022-09-20T13:54:20;95073.03;;;18.03;35.60
5380;BME280;2713;42.680;23.310;2022-09-20T13:56:52;95067.81;;;17.73;35.57
5380;BME280;2713;42.680;23.310;2022-09-20T13:59:21;95065.44;;;17.84;36.41
5380;BME280;2713;42.680;23.310;2022-09-20T14:01:50;95074.06;;;18.02;36.45
5380;BME280;2713;42.680;23.310;2022-09-20T14:04:21;95063.13;;;17.76;36.35
5380;BME280;2713;42.680;23.310;2022-09-20T14:06:52;95053.00;;;17.61;36.50
5380;BME280;2713;42.680;23.310;2022-09-20T14:09:24;95059.13;;;17.85;36.58
5380;BME280;2713;42.680;23.310;2022-09-20T14:11:53;95063.94;;;17.88;36.86
5380;BME280;2713;42.680;23.310;2022-09-20T14:14:23;95064.19;;;17.86;38.30
5380;BME280;2713;42.680;23.310;2022-09-20T14:16:52;95062.72;;;17.60;39.49
5380;BME280;2713;42.680;23.310;2022-09-20T14:19:24;95065.47;;;17.47;39.97
5380;BME280;2713;42.680;23.310;2022-09-20T14:21:55;95054.59;;;17.62;39.94
5380;BME280;2713;42.680;23.310;2022-09-20T14:24:26;95049.16;;;17.63;40.23
5380;BME280;2713;42.680;23.310;2022-09-20T14:27:02;95053.94;;;17.66;41.05
5380;BME280;2713;42.680;23.310;2022-09-20T14:29:37;95046.50;;;17.63;40.65
5380;BME280;2713;42.680;23.310;2022-09-20T14:32:10;95059.66;;;17.63;40.40
5380;BME280;2713;42.680;23.310;2022-09-20T14:34:43;95064.19;;;17.56;39.89
5380;BME280;2713;42.680;23.310;2022-09-20T14:37:25;95066.28;;;17.66;39.31
5380;BME280;2713;42.680;23.310;2022-09-20T14:39:54;95059.13;;;17.73;38.95
5380;BME280;2713;42.680;23.310;2022-09-20T14:42:27;95046.50;;;17.63;39.52
5380;BME280;2713;42.680;23.310;2022-09-20T14:44:55;95066.81;;;17.20;39.64
5380;BME280;2713;42.680;23.310;2022-09-20T14:47:25;95065.22;;;17.19;40.44
5380;BME280;2713;42.680;23.310;2022-09-20T14:49:54;95065.22;;;17.01;41.57
5380;BME280;2713;42.680;23.310;2022-09-20T14:52:38;95063.00;;;17.34;41.43
5380;BME280;2713;42.680;23.310;2022-09-20T14:55:22;95068.88;;;17.36;40.76